Time;durP1;ratioP1;P1;durP2;ratioP2;P2;SDS_P1;SDS_P2;PMS_P1;PMS_P2;Temp;Humidity;BMP_temperature;BMP_pressure;BME280_temperature;BME280_humidity;BME280_pressure;Samples;Min_cycle;Max_cycle;Signal;HPM_P1;HPM_P2
2021/05/05 00:02:39;;;;;;;2.47;1.90;;;22.90;33.50;;;;;;6063059;28;80286;-65
2021/05/05 00:05:40;;;;;;;6.65;2.15;;;22.90;33.60;;;;;;6065268;28;80319;-65
2021/05/05 00:08:40;;;;;;;1.98;1.77;;;22.90;34.10;;;;;;6067652;28;80510;-65
2021/05/05 00:11:41;;;;;;;4.65;2.00;;;22.90;34.40;;;;;;6063367;28;81257;-64
2021/05/05 00:14:42;;;;;;;4.18;2.08;;;22.90;33.80;;;;;;6066817;28;80827;-64
2021/05/05 00:17:42;;;;;;;2.13;1.85;;;22.90;33.50;;;;;;6065237;28;80600;-64
2021/05/05 00:20:43;;;;;;;3.00;2.05;;;22.90;34.20;;;;;;6061456;28;80813;-64
2021/05/05 00:23:43;;;;;;;2.47;1.90;;;22.90;33.60;;;;;;6063277;28;80630;-66
2021/05/05 00:26:44;;;;;;;3.92;2.00;;;22.90;33.70;;;;;;6067569;28;81709;-65
2021/05/05 00:29:45;;;;;;;2.00;1.80;;;22.90;33.80;;;;;;6066050;28;81308;-65
2021/05/05 00:32:45;;;;;;;2.08;1.88;;;22.90;33.60;;;;;;6061474;28;80659;-65
2021/05/05 00:35:46;;;;;;;2.13;1.83;;;22.90;34.40;;;;;;6059952;28;80855;-65
2021/05/05 00:38:46;;;;;;;2.53;1.85;;;22.90;33.60;;;;;;6062001;28;80415;-65
2021/05/05 00:41:47;;;;;;;1.50;1.40;;;22.90;34.00;;;;;;6064989;28;80647;-64
2021/05/05 00:44:47;;;;;;;2.15;1.75;;;22.90;33.60;;;;;;6060966;28;80346;-64
2021/05/05 00:47:48;;;;;;;2.35;1.65;;;22.90;33.40;;;;;;6067285;28;80823;-65
2021/05/05 00:50:48;;;;;;;3.45;1.83;;;22.90;33.40;;;;;;6067420;28;80387;-65
2021/05/05 00:53:49;;;;;;;4.00;2.33;;;22.90;33.40;;;;;;6071575;28;80575;-65
2021/05/05 00:56:49;;;;;;;3.08;1.90;;;22.90;33.20;;;;;;6062243;28;80884;-65
2021/05/05 00:59:50;;;;;;;3.67;1.55;;;22.90;33.40;;;;;;6066200;28;81148;-65
2021/05/05 01:02:50;;;;;;;2.20;1.90;;;22.90;33.40;;;;;;6057770;28;83277;-65
2021/05/05 01:05:51;;;;;;;2.38;1.52;;;22.90;33.90;;;;;;6065428;28;81277;-66
2021/05/05 01:08:52;;;;;;;3.03;1.70;;;22.90;33.90;;;;;;6061530;28;81580;-66
2021/05/05 01:11:53;;;;;;;2.72;1.80;;;22.90;33.70;;;;;;6066094;28;82709;-66
2021/05/05 01:14:53;;;;;;;1.75;1.50;;;22.90;33.80;;;;;;6060669;28;82186;-64
2021/05/05 01:17:54;;;;;;;1.75;1.65;;;22.90;33.50;;;;;;6059868;28;82609;-64
2021/05/05 01:20:55;;;;;;;2.05;1.85;;;22.90;34.30;;;;;;6062418;28;80427;-65
2021/05/05 01:23:55;;;;;;;3.70;2.20;;;22.90;35.10;;;;;;6061446;28;80874;-65
2021/05/05 01:26:56;;;;;;;4.85;1.77;;;22.90;35.40;;;;;;6062581;28;80761;-65
2021/05/05 01:29:57;;;;;;;3.08;1.88;;;22.90;34.90;;;;;;6061238;28;80282;-65
2021/05/05 01:32:57;;;;;;;4.05;1.80;;;23.00;35.40;;;;;;6060479;28;81535;-64
2021/05/05 01:36:00;;;;;;;2.38;1.73;;;23.00;35.40;;;;;;6064024;28;83825;-65
2021/05/05 01:39:01;;;;;;;3.10;2.15;;;23.00;34.90;;;;;;6058135;28;82653;-65
2021/05/05 01:42:02;;;;;;;2.15;1.73;;;22.90;35.00;;;;;;6062404;28;82454;-63
2021/05/05 01:45:02;;;;;;;6.18;2.35;;;22.90;34.60;;;;;;6063172;28;81384;-64
2021/05/05 01:48:03;;;;;;;1.90;1.70;;;22.90;34.00;;;;;;6063578;28;80691;-64
2021/05/05 01:51:05;;;;;;;2.38;2.13;;;22.90;33.80;;;;;;6056047;28;85318;-64
2021/05/05 01:54:06;;;;;;;2.63;1.60;;;22.90;34.10;;;;;;6064945;28;81124;-64
2021/05/05 01:57:06;;;;;;;2.53;1.75;;;22.90;34.40;;;;;;6058209;28;82039;-65
2021/05/05 02:00:09;;;;;;;2.33;1.73;;;22.90;34.40;;;;;;6059064;28;83740;-64
2021/05/05 02:03:17;;;;;;;3.72;2.30;;;22.90;34.50;;;;;;6063715;28;80415;-64
2021/05/05 02:06:26;;;;;;;2.67;2.08;;;22.90;34.50;;;;;;6063165;28;82089;-65
2021/05/05 02:09:49;;;;;;;2.50;1.60;;;22.90;34.50;;;;;;6057709;28;82854;-65
2021/05/05 02:12:50;;;;;;;2.47;1.90;;;22.90;33.80;;;;;;6070867;28;80403;-66
2021/05/05 02:15:53;;;;;;;2.03;1.65;;;22.90;34.60;;;;;;6065749;28;83452;-65
2021/05/05 02:18:56;;;;;;;1.95;1.60;;;22.90;34.50;;;;;;6066374;28;80898;-65
2021/05/05 02:21:58;;;;;;;3.10;1.83;;;22.90;34.70;;;;;;6071681;28;81884;-66
2021/05/05 02:24:59;;;;;;;2.55;1.63;;;22.90;34.40;;;;;;6062673;28;80541;-67
2021/05/05 02:28:00;;;;;;;5.60;2.00;;;22.90;34.30;;;;;;6067030;28;83569;-66
2021/05/05 02:31:07;;;;;;;2.38;1.52;;;22.90;34.50;;;;;;6066153;28;83365;-66
2021/05/05 02:34:09;;;;;;;2.17;1.83;;;22.90;34.30;;;;;;6067107;28;81216;-66
2021/05/05 02:37:10;;;;;;;3.08;1.48;;;22.90;33.90;;;;;;6061169;28;83300;-66
2021/05/05 02:40:11;;;;;;;2.67;1.85;;;22.90;34.00;;;;;;6067705;28;82161;-66
2021/05/05 02:43:12;;;;;;;2.90;1.50;;;22.90;34.60;;;;;;6068136;28;80285;-66
2021/05/05 02:46:14;;;;;;;3.28;1.70;;;22.90;34.80;;;;;;6062463;28;83749;-66
2021/05/05 02:49:15;;;;;;;3.00;1.95;;;22.90;34.40;;;;;;6066520;28;80589;-66
2021/05/05 02:52:16;;;;;;;1.60;1.50;;;22.90;34.90;;;;;;6066741;28;83091;-66
2021/05/05 02:55:17;;;;;;;2.03;1.50;;;22.90;34.40;;;;;;6062019;28;82178;-67
2021/05/05 02:58:22;;;;;;;3.03;2.08;;;22.90;34.00;;;;;;6061779;28;82945;-67
2021/05/05 03:01:23;;;;;;;4.38;2.30;;;22.90;34.60;;;;;;6068465;28;83666;-66
2021/05/05 03:04:23;;;;;;;2.13;1.60;;;22.90;34.00;;;;;;6069521;28;80594;-67
2021/05/05 03:07:24;;;;;;;1.92;1.70;;;22.90;34.20;;;;;;6068720;28;81215;-66
2021/05/05 03:10:24;;;;;;;1.88;1.77;;;22.90;34.20;;;;;;6067503;28;81135;-66
2021/05/05 03:13:25;;;;;;;2.58;1.67;;;22.90;34.10;;;;;;6063047;28;81481;-64
2021/05/05 03:16:25;;;;;;;2.08;1.88;;;22.90;34.40;;;;;;6068431;28;82329;-66
2021/05/05 03:19:26;;;;;;;5.60;2.08;;;22.90;34.10;;;;;;6056355;28;81921;-68
2021/05/05 03:22:26;;;;;;;2.28;1.83;;;22.90;34.30;;;;;;6065629;28;81187;-66
2021/05/05 03:25:27;;;;;;;3.42;1.95;;;22.90;35.40;;;;;;6063153;28;80533;-67
2021/05/05 03:28:27;;;;;;;2.33;2.13;;;22.90;32.90;;;;;;6064199;28;80741;-66
2021/05/05 03:31:28;;;;;;;3.92;1.85;;;22.90;33.10;;;;;;6060681;28;81864;-65
2021/05/05 03:34:28;;;;;;;3.28;1.98;;;22.80;32.50;;;;;;6063279;28;80992;-66
2021/05/05 03:37:29;;;;;;;3.40;1.80;;;22.80;32.10;;;;;;6069670;28;80606;-66
2021/05/05 03:40:29;;;;;;;2.92;2.10;;;22.80;31.90;;;;;;6052511;28;80257;-66
2021/05/05 03:43:31;;;;;;;3.92;1.80;;;22.80;32.50;;;;;;6046428;28;80628;-65
2021/05/05 03:46:31;;;;;;;3.35;2.00;;;22.80;32.20;;;;;;6061057;28;81390;-65
2021/05/05 03:49:32;;;;;;;2.08;1.80;;;22.80;31.90;;;;;;6064829;28;81835;-65
2021/05/05 03:52:32;;;;;;;3.35;2.00;;;22.90;31.70;;;;;;6062072;28;80678;-65
2021/05/05 03:55:33;;;;;;;3.92;1.88;;;22.90;31.60;;;;;;6065114;28;80500;-65
2021/05/05 03:58:33;;;;;;;3.10;1.80;;;22.90;31.60;;;;;;6062418;28;81399;-64
2021/05/05 04:01:34;;;;;;;3.17;1.75;;;22.90;31.90;;;;;;6063854;28;83027;-64
2021/05/05 04:04:35;;;;;;;3.50;1.92;;;22.90;31.60;;;;;;6060499;28;82075;-63
2021/05/05 04:07:35;;;;;;;4.55;2.38;;;22.90;31.60;;;;;;6061994;28;81499;-64
2021/05/05 04:10:36;;;;;;;3.92;2.00;;;22.90;31.60;;;;;;6063297;28;81196;-63
2021/05/05 04:13:36;;;;;;;5.05;2.05;;;22.90;31.60;;;;;;6061536;28;80853;-64
2021/05/05 04:16:37;;;;;;;4.75;2.20;;;22.90;31.80;;;;;;6060290;28;81477;-63
2021/05/05 04:19:37;;;;;;;2.80;1.95;;;22.90;31.60;;;;;;6060651;28;81120;-62
2021/05/05 04:22:38;;;;;;;4.88;2.10;;;22.90;31.80;;;;;;6061245;28;89107;-63
2021/05/05 04:25:38;;;;;;;2.33;1.88;;;22.90;32.40;;;;;;6056392;28;83174;-63
2021/05/05 04:28:39;;;;;;;5.70;2.28;;;23.00;32.00;;;;;;6056299;28;81355;-62
2021/05/05 04:31:39;;;;;;;3.47;2.22;;;23.00;32.40;;;;;;6067014;28;80540;-63
2021/05/05 04:34:40;;;;;;;3.08;1.90;;;22.90;32.30;;;;;;6060425;28;82205;-63
2021/05/05 04:37:41;;;;;;;3.65;1.98;;;23.00;32.50;;;;;;6067728;28;80904;-62
2021/05/05 04:40:41;;;;;;;3.80;2.13;;;23.00;32.30;;;;;;6061269;28;80693;-62
2021/05/05 04:43:42;;;;;;;2.75;1.70;;;23.00;33.00;;;;;;6057098;28;80311;-62
2021/05/05 04:46:42;;;;;;;5.38;2.40;;;23.00;33.70;;;;;;6060627;28;81726;-62
2021/05/05 04:49:43;;;;;;;6.18;2.97;;;23.00;32.90;;;;;;6060696;28;80403;-63
2021/05/05 04:52:44;;;;;;;3.80;2.03;;;23.00;32.50;;;;;;6058707;28;81487;-63
2021/05/05 04:55:44;;;;;;;5.95;2.42;;;23.00;32.70;;;;;;6060578;28;81577;-63
2021/05/05 04:58:45;;;;;;;3.20;1.95;;;23.00;32.50;;;;;;6061288;28;80594;-63
2021/05/05 05:01:45;;;;;;;5.75;1.98;;;23.00;33.50;;;;;;6069767;28;80696;-63
2021/05/05 05:04:46;;;;;;;4.85;2.88;;;23.00;34.30;;;;;;6062710;28;81111;-62
2021/05/05 05:07:46;;;;;;;7.47;2.20;;;23.00;34.80;;;;;;6060436;28;82975;-62
2021/05/05 05:10:47;;;;;;;4.30;2.38;;;23.00;35.30;;;;;;6036492;28;80247;-64
2021/05/05 05:13:47;;;;;;;4.80;2.53;;;23.10;35.60;;;;;;6055257;28;83441;-63
2021/05/05 05:16:48;;;;;;;6.47;2.33;;;23.10;35.70;;;;;;6055408;28;80484;-62
2021/05/05 05:19:48;;;;;;;4.10;2.50;;;23.20;35.90;;;;;;6058557;28;80880;-62
2021/05/05 05:22:51;;;;;;;3.60;2.28;;;23.10;36.00;;;;;;6060902;28;80443;-62
2021/05/05 05:25:51;;;;;;;6.35;2.78;;;23.20;36.80;;;;;;6062836;28;81673;-62
2021/05/05 05:28:52;;;;;;;5.45;2.70;;;23.20;36.80;;;;;;6063558;28;81154;-61
2021/05/05 05:31:52;;;;;;;2.67;2.20;;;23.20;35.90;;;;;;6060997;28;80426;-62
2021/05/05 05:34:53;;;;;;;7.10;2.17;;;23.20;35.90;;;;;;6058753;28;80341;-62
2021/05/05 05:37:54;;;;;;;3.88;2.35;;;23.20;36.00;;;;;;6057585;28;80682;-64
2021/05/05 05:40:54;;;;;;;3.70;2.03;;;23.20;35.90;;;;;;6060591;28;82999;-61
2021/05/05 05:43:55;;;;;;;2.70;2.22;;;23.20;35.60;;;;;;6044893;28;80800;-64
2021/05/05 05:46:55;;;;;;;3.63;2.10;;;23.20;35.60;;;;;;6059239;28;83090;-61
2021/05/05 05:49:56;;;;;;;7.20;2.50;;;23.20;35.90;;;;;;6062765;28;82459;-64
2021/05/05 05:52:56;;;;;;;13.77;2.83;;;23.20;36.20;;;;;;6059766;28;80514;-63
2021/05/05 05:55:57;;;;;;;6.30;2.42;;;23.20;36.20;;;;;;6062301;28;83882;-64
2021/05/05 05:58:57;;;;;;;2.50;2.00;;;23.20;36.20;;;;;;6056705;28;80914;-63
2021/05/05 06:01:58;;;;;;;4.63;2.50;;;23.20;35.70;;;;;;6057036;28;81424;-65
2021/05/05 06:04:58;;;;;;;2.47;2.03;;;23.20;35.30;;;;;;6064243;28;80781;-63
2021/05/05 06:07:59;;;;;;;6.50;2.42;;;23.30;35.10;;;;;;6061726;28;80590;-63
2021/05/05 06:11:00;;;;;;;4.05;2.45;;;23.30;35.00;;;;;;6066516;28;80065;-64
2021/05/05 06:14:00;;;;;;;3.58;2.28;;;23.30;34.60;;;;;;6064113;28;83445;-63
2021/05/05 06:17:02;;;;;;;3.20;1.90;;;23.20;34.60;;;;;;6071585;28;83346;-64
2021/05/05 06:20:03;;;;;;;5.60;2.75;;;23.20;34.30;;;;;;6064272;28;82189;-63
2021/05/05 06:23:03;;;;;;;4.90;2.35;;;23.20;35.70;;;;;;6018284;28;84917;-65
2021/05/05 06:26:04;;;;;;;5.75;2.40;;;23.20;34.60;;;;;;6060754;28;80350;-64
2021/05/05 06:29:04;;;;;;;5.15;2.35;;;23.20;35.50;;;;;;6070333;28;82672;-63
2021/05/05 06:32:05;;;;;;;5.53;2.53;;;23.20;34.50;;;;;;6065914;28;80342;-64
2021/05/05 06:35:05;;;;;;;4.78;2.42;;;23.20;34.20;;;;;;6065221;28;82536;-64
2021/05/05 06:38:06;;;;;;;4.72;2.42;;;23.20;34.30;;;;;;6066447;28;80964;-63
2021/05/05 06:41:06;;;;;;;6.93;2.40;;;23.20;34.60;;;;;;6062865;28;81073;-63
2021/05/05 06:44:07;;;;;;;6.88;2.83;;;23.20;34.40;;;;;;6064602;28;80232;-64
2021/05/05 06:47:07;;;;;;;5.75;2.28;;;23.20;34.80;;;;;;6061867;28;80767;-65
2021/05/05 06:50:08;;;;;;;3.75;2.33;;;23.20;34.60;;;;;;6063199;28;83246;-65
2021/05/05 06:53:08;;;;;;;6.82;2.90;;;23.20;35.20;;;;;;6051286;28;81166;-65
2021/05/05 06:56:09;;;;;;;3.53;2.28;;;23.20;35.30;;;;;;6071042;28;80354;-65
2021/05/05 06:59:10;;;;;;;2.80;2.35;;;23.20;34.90;;;;;;6070759;28;83015;-64
2021/05/05 07:02:10;;;;;;;4.00;2.47;;;23.20;34.30;;;;;;6065422;28;80768;-65
2021/05/05 07:05:11;;;;;;;3.88;2.22;;;23.10;34.30;;;;;;6065471;28;83088;-63
2021/05/05 07:08:11;;;;;;;4.97;2.17;;;23.10;34.30;;;;;;6064152;28;82783;-64
2021/05/05 07:11:12;;;;;;;6.75;2.47;;;23.20;34.30;;;;;;6058622;28;83064;-64
2021/05/05 07:14:12;;;;;;;3.42;2.47;;;23.20;34.30;;;;;;6063297;28;80315;-64
2021/05/05 07:17:13;;;;;;;6.03;2.55;;;23.20;33.90;;;;;;6071812;28;81037;-63
2021/05/05 07:20:13;;;;;;;4.68;2.35;;;23.20;34.30;;;;;;6063095;28;80946;-64
2021/05/05 07:23:14;;;;;;;3.83;2.10;;;23.20;33.80;;;;;;6061309;28;80276;-64
2021/05/05 07:26:15;;;;;;;6.68;2.03;;;23.20;34.00;;;;;;6065228;28;80166;-63
2021/05/05 07:29:15;;;;;;;7.53;2.55;;;23.20;33.80;;;;;;6060580;28;80452;-63
2021/05/05 07:32:16;;;;;;;4.38;2.05;;;23.30;34.10;;;;;;6058226;28;80927;-63
2021/05/05 07:35:18;;;;;;;5.18;2.05;;;23.20;34.00;;;;;;6060941;28;81098;-63
2021/05/05 07:38:45;;;;;;;6.93;2.70;;;23.20;33.50;;;;;;6060597;28;81021;-63
2021/05/05 07:45:21;;;;;;;6.28;1.95;;;23.20;33.70;;;;;;6065693;28;80797;-64
2021/05/05 07:48:29;;;;;;;3.75;2.30;;;23.20;33.60;;;;;;6066798;28;85390;-64
2021/05/05 07:51:29;;;;;;;5.80;2.13;;;23.30;33.30;;;;;;6052447;28;84926;-65
2021/05/05 07:54:30;;;;;;;3.08;2.00;;;23.30;33.80;;;;;;6061216;28;80615;-63
2021/05/05 07:57:30;;;;;;;2.72;2.10;;;23.30;33.90;;;;;;6064065;28;80589;-64
2021/05/05 08:00:32;;;;;;;2.95;1.90;;;23.30;34.30;;;;;;6068497;28;81280;-64
2021/05/05 08:03:32;;;;;;;4.75;1.92;;;23.30;33.90;;;;;;6067008;28;84234;-62
2021/05/05 08:06:33;;;;;;;3.13;2.00;;;23.30;33.80;;;;;;6058854;28;87851;-64
2021/05/05 08:09:33;;;;;;;2.95;2.10;;;23.30;33.50;;;;;;6060129;28;80740;-64
2021/05/05 08:12:34;;;;;;;2.97;1.88;;;23.30;34.30;;;;;;6060484;28;80613;-64
2021/05/05 08:15:35;;;;;;;3.35;2.20;;;23.30;32.70;;;;;;6061745;28;80495;-64
2021/05/05 08:18:35;;;;;;;3.90;2.53;;;23.30;32.20;;;;;;6064090;28;80434;-63
2021/05/05 08:21:36;;;;;;;4.95;2.55;;;23.40;31.90;;;;;;6063848;28;80926;-64
2021/05/05 08:24:37;;;;;;;5.57;2.92;;;23.30;31.50;;;;;;6064761;28;81131;-63
2021/05/05 08:27:38;;;;;;;4.50;2.03;;;23.40;31.20;;;;;;6062812;28;80478;-63
2021/05/05 08:30:38;;;;;;;4.80;2.60;;;23.40;31.30;;;;;;6066504;28;80525;-62
2021/05/05 08:33:39;;;;;;;3.13;2.25;;;23.40;31.20;;;;;;6065349;28;80621;-63
2021/05/05 08:36:39;;;;;;;3.85;2.75;;;23.40;31.50;;;;;;6065795;28;80515;-63
2021/05/05 08:39:40;;;;;;;5.78;2.55;;;23.40;31.00;;;;;;6068295;28;84725;-63
2021/05/05 08:42:40;;;;;;;5.07;2.17;;;23.40;30.90;;;;;;6061322;28;81623;-63
2021/05/05 08:45:41;;;;;;;3.72;2.00;;;23.40;31.00;;;;;;6062229;28;81853;-63
2021/05/05 08:48:41;;;;;;;5.57;2.40;;;23.40;30.80;;;;;;6076103;28;80455;-63
2021/05/05 08:51:42;;;;;;;6.43;2.25;;;23.40;30.50;;;;;;6060420;28;81169;-62
2021/05/05 08:54:42;;;;;;;5.00;2.65;;;23.40;31.30;;;;;;6063788;28;81693;-62
2021/05/05 08:57:43;;;;;;;7.97;2.40;;;23.40;30.70;;;;;;6061268;28;80326;-63
2021/05/05 09:00:44;;;;;;;5.10;2.65;;;23.40;30.80;;;;;;6059031;28;80831;-63
2021/05/05 09:03:44;;;;;;;6.38;2.35;;;23.40;30.60;;;;;;6059559;28;80534;-62
2021/05/05 09:06:45;;;;;;;3.60;2.40;;;23.40;30.50;;;;;;6060962;28;81286;-62
2021/05/05 09:09:45;;;;;;;5.45;2.53;;;23.40;30.30;;;;;;6060400;28;80659;-62
2021/05/05 09:12:46;;;;;;;6.30;2.28;;;23.40;30.50;;;;;;6058948;28;81248;-62
2021/05/05 09:15:46;;;;;;;5.10;2.70;;;23.40;30.30;;;;;;6059770;28;80334;-63
2021/05/05 09:18:47;;;;;;;5.38;2.60;;;23.40;30.00;;;;;;6061634;28;81548;-62
2021/05/05 09:21:52;;;;;;;6.05;2.63;;;23.40;30.10;;;;;;6059905;28;81534;-62
2021/05/05 09:24:52;;;;;;;6.15;2.53;;;23.40;30.00;;;;;;6060536;28;80639;-62
2021/05/05 09:27:53;;;;;;;4.82;2.38;;;23.40;30.00;;;;;;6059662;28;81075;-62
2021/05/05 09:30:53;;;;;;;3.17;2.20;;;23.50;30.00;;;;;;6059027;28;83483;-62
2021/05/05 09:33:54;;;;;;;4.10;2.50;;;23.50;30.50;;;;;;6062557;28;81811;-62
2021/05/05 09:36:55;;;;;;;4.47;2.10;;;23.40;30.60;;;;;;6067030;28;81156;-62
2021/05/05 09:39:55;;;;;;;9.48;2.53;;;23.40;30.70;;;;;;6064097;28;80664;-61
2021/05/05 09:42:56;;;;;;;4.93;2.63;;;23.40;30.70;;;;;;6060519;28;81595;-61
2021/05/05 09:45:58;;;;;;;3.00;2.08;;;23.20;30.40;;;;;;6062605;28;83563;-61
2021/05/05 09:48:58;;;;;;;4.78;2.22;;;23.20;31.30;;;;;;6060853;28;80590;-61
2021/05/05 09:52:00;;;;;;;4.55;2.75;;;23.30;30.60;;;;;;6063854;28;80270;-61
2021/05/05 09:55:02;;;;;;;5.50;2.63;;;23.40;30.80;;;;;;6060724;28;80667;-60
2021/05/05 09:58:02;;;;;;;5.95;2.28;;;23.40;31.50;;;;;;6073429;28;82089;-61
2021/05/05 10:01:03;;;;;;;7.22;2.50;;;23.40;30.90;;;;;;6062256;28;82214;-62
2021/05/05 10:04:04;;;;;;;6.43;2.22;;;23.40;31.30;;;;;;6063435;28;80809;-61
2021/05/05 10:07:05;;;;;;;4.57;2.67;;;23.40;31.00;;;;;;6059150;28;80552;-61
2021/05/05 10:10:06;;;;;;;4.35;2.33;;;23.40;30.70;;;;;;6064330;28;81115;-61
2021/05/05 10:13:06;;;;;;;4.30;2.20;;;23.40;30.60;;;;;;6059141;28;84144;-63
2021/05/05 10:16:07;;;;;;;4.60;2.42;;;23.50;30.90;;;;;;6067804;28;85281;-61
2021/05/05 10:19:07;;;;;;;5.63;2.33;;;23.50;31.00;;;;;;6062875;28;80533;-61
2021/05/05 10:22:08;;;;;;;3.83;2.30;;;23.50;31.10;;;;;;6057159;28;80708;-61
2021/05/05 10:25:08;;;;;;;4.28;2.10;;;23.40;30.70;;;;;;6017935;28;81614;-61
2021/05/05 10:28:10;;;;;;;3.20;2.10;;;23.50;30.30;;;;;;6061616;28;80896;-62
2021/05/05 10:31:22;;;;;;;6.78;2.45;;;23.50;30.60;;;;;;6058906;28;80466;-61
2021/05/05 10:34:25;;;;;;;2.35;1.80;;;23.50;30.40;;;;;;6060710;28;85238;-61
2021/05/05 10:37:26;;;;;;;2.83;2.00;;;23.50;30.60;;;;;;6059655;28;80464;-61
2021/05/05 10:40:26;;;;;;;4.30;2.25;;;23.40;30.10;;;;;;6064285;28;80755;-62
2021/05/05 10:43:27;;;;;;;5.30;2.38;;;23.50;30.30;;;;;;6059236;28;81419;-62
2021/05/05 10:46:28;;;;;;;3.90;2.20;;;23.50;29.80;;;;;;6070563;28;80641;-61
2021/05/05 10:49:28;;;;;;;4.90;1.88;;;23.50;29.70;;;;;;6064762;28;80144;-63
2021/05/05 10:52:29;;;;;;;5.63;2.33;;;23.50;29.90;;;;;;6061674;28;80672;-63
2021/05/05 10:55:29;;;;;;;5.43;2.25;;;23.40;29.50;;;;;;6063516;28;80932;-63
2021/05/05 10:58:30;;;;;;;3.17;2.05;;;23.20;29.30;;;;;;6057951;28;80620;-62
2021/05/05 11:01:31;;;;;;;4.97;2.65;;;23.10;29.40;;;;;;6061032;28;80348;-63
2021/05/05 11:04:31;;;;;;;4.70;2.30;;;23.00;29.90;;;;;;6059149;28;80952;-63
2021/05/05 11:07:32;;;;;;;4.95;2.13;;;23.00;30.00;;;;;;6060791;28;80991;-63
2021/05/05 11:10:33;;;;;;;2.08;1.70;;;23.10;29.90;;;;;;6060433;28;81025;-63
2021/05/05 11:13:33;;;;;;;3.75;2.25;;;23.10;29.70;;;;;;6055556;28;81541;-62
2021/05/05 11:16:34;;;;;;;6.13;2.38;;;23.10;30.30;;;;;;6051898;28;83279;-62
2021/05/05 11:19:34;;;;;;;3.45;2.03;;;23.20;30.50;;;;;;6063929;28;80818;-61
2021/05/05 11:22:34;;;;;;;2.88;1.90;;;23.20;30.70;;;;;;6061710;28;80194;-62
2021/05/05 11:25:35;;;;;;;4.97;2.60;;;23.30;30.60;;;;;;6063208;28;81618;-61
2021/05/05 11:28:36;;;;;;;3.90;2.05;;;23.30;30.80;;;;;;6063198;28;80688;-62
2021/05/05 11:31:36;;;;;;;5.53;2.08;;;23.40;30.80;;;;;;6057851;28;80639;-62
2021/05/05 11:34:37;;;;;;;3.20;2.00;;;23.30;30.90;;;;;;6061590;28;80546;-62
2021/05/05 11:37:37;;;;;;;4.50;2.53;;;23.40;30.80;;;;;;6062712;28;80640;-62
2021/05/05 11:40:38;;;;;;;5.57;2.22;;;23.40;30.60;;;;;;6067343;28;80404;-61
2021/05/05 11:43:38;;;;;;;3.33;2.10;;;23.40;30.10;;;;;;6062177;28;80544;-62
2021/05/05 11:46:39;;;;;;;3.28;1.75;;;23.30;29.60;;;;;;6062136;28;80444;-61
2021/05/05 11:49:39;;;;;;;4.22;1.52;;;23.30;29.30;;;;;;6063040;28;82827;-64
2021/05/05 11:52:40;;;;;;;4.70;1.73;;;23.20;29.10;;;;;;6066911;28;81831;-61
2021/05/05 11:55:40;;;;;;;3.33;2.00;;;23.10;28.70;;;;;;6063642;28;80624;-62
2021/05/05 11:58:41;;;;;;;3.10;1.60;;;23.00;28.80;;;;;;6063570;28;80385;-62
2021/05/05 12:01:41;;;;;;;5.47;1.88;;;23.10;29.10;;;;;;6041906;28;80632;-62
2021/05/05 12:04:42;;;;;;;7.40;1.60;;;23.20;29.00;;;;;;6060999;28;80681;-62
2021/05/05 12:07:43;;;;;;;6.72;1.70;;;23.20;29.10;;;;;;6058988;28;80191;-62
2021/05/05 12:10:43;;;;;;;3.58;1.92;;;23.30;29.30;;;;;;6061250;28;80480;-61
2021/05/05 12:13:45;;;;;;;7.25;2.38;;;23.30;30.00;;;;;;6062091;28;80313;-62
2021/05/05 12:16:46;;;;;;;3.08;1.90;;;23.30;31.20;;;;;;6061595;28;81791;-62
2021/05/05 12:19:47;;;;;;;5.65;2.47;;;23.30;31.30;;;;;;6061813;28;82747;-62
2021/05/05 12:22:47;;;;;;;6.88;2.25;;;23.40;32.10;;;;;;6067035;28;80481;-62
2021/05/05 12:25:48;;;;;;;5.07;2.47;;;23.30;32.80;;;;;;6051240;28;84004;-62
2021/05/05 12:28:48;;;;;;;5.72;2.10;;;23.30;32.90;;;;;;6062994;28;80421;-62
2021/05/05 12:31:49;;;;;;;5.72;2.40;;;23.40;33.40;;;;;;6060705;28;81234;-62
2021/05/05 12:34:49;;;;;;;5.53;2.50;;;23.30;33.00;;;;;;6060693;28;80865;-61
2021/05/05 12:37:50;;;;;;;3.13;2.15;;;23.40;33.30;;;;;;6060085;28;81882;-62
2021/05/05 12:40:51;;;;;;;6.32;2.05;;;23.30;33.00;;;;;;6060768;28;80737;-62
2021/05/05 12:43:51;;;;;;;2.20;1.92;;;23.40;33.60;;;;;;6060451;28;80628;-63
2021/05/05 12:47:09;;;;;;;5.63;2.63;;;23.30;33.40;;;;;;6060169;28;81080;-62
2021/05/05 12:50:10;;;;;;;9.80;3.00;;;23.30;34.50;;;;;;6060837;28;80537;-63
2021/05/05 12:53:11;;;;;;;5.30;3.00;;;23.30;35.50;;;;;;6058330;28;81415;-63
2021/05/05 12:56:11;;;;;;;19.95;3.30;;;23.30;36.10;;;;;;6062300;28;81619;-62
2021/05/05 12:59:12;;;;;;;7.55;3.05;;;23.30;36.40;;;;;;6060862;28;80404;-62
2021/05/05 13:02:13;;;;;;;7.25;3.22;;;23.30;35.40;;;;;;6061999;28;80496;-62
2021/05/05 13:05:14;;;;;;;6.15;3.40;;;23.30;35.30;;;;;;6060194;28;82123;-62
2021/05/05 13:08:14;;;;;;;7.30;3.70;;;23.30;36.10;;;;;;6072729;28;80557;-62
2021/05/05 13:11:15;;;;;;;9.18;3.47;;;23.30;37.00;;;;;;6059913;28;80425;-62
2021/05/05 13:14:23;;;;;;;10.90;4.10;;;23.30;36.90;;;;;;6059923;28;80444;-62
2021/05/05 13:25:39;;;;;;;6.00;3.55;;;23.30;37.10;;;;;;6045881;28;80445;-63
2021/05/05 13:30:55;;;;;;;9.25;2.80;;;23.30;38.20;;;;;;6053099;28;81627;-62
2021/05/05 13:33:56;;;;;;;6.05;2.58;;;23.20;37.60;;;;;;6058830;28;81149;-63
2021/05/05 13:36:57;;;;;;;7.75;3.70;;;23.30;38.50;;;;;;6060178;28;82165;-62
2021/05/05 13:39:58;;;;;;;8.00;3.35;;;23.20;38.60;;;;;;6060709;28;81515;-62
2021/05/05 13:42:59;;;;;;;5.63;3.17;;;23.20;38.60;;;;;;6062509;28;82077;-62
2021/05/05 13:52:22;;;;;;;4.75;2.55;;;23.20;38.90;;;;;;6060843;28;81457;-62
2021/05/05 13:55:23;;;;;;;6.07;2.50;;;23.20;38.90;;;;;;6063572;28;80344;-63
2021/05/05 13:58:23;;;;;;;6.40;2.65;;;23.20;38.80;;;;;;6055677;28;80750;-62
2021/05/05 14:01:24;;;;;;;6.07;2.47;;;23.10;38.30;;;;;;6058583;28;83293;-62
2021/05/05 14:04:24;;;;;;;4.07;2.83;;;23.10;38.40;;;;;;6059830;28;80695;-62
2021/05/05 14:07:25;;;;;;;3.72;2.20;;;23.10;38.30;;;;;;6062446;28;80398;-61
2021/05/05 14:10:26;;;;;;;4.65;2.40;;;23.20;38.50;;;;;;6052883;28;82082;-61
2021/05/05 14:13:26;;;;;;;5.47;2.97;;;23.10;38.50;;;;;;6056872;28;81476;-61
2021/05/05 14:16:27;;;;;;;4.65;2.30;;;23.10;38.50;;;;;;6065105;28;81617;-62
2021/05/05 14:19:28;;;;;;;4.95;2.50;;;23.10;38.80;;;;;;6075478;28;80269;-61
2021/05/05 14:22:28;;;;;;;2.35;1.77;;;23.10;38.70;;;;;;6064012;28;80937;-61
2021/05/05 14:25:29;;;;;;;3.58;1.90;;;23.00;38.70;;;;;;6071453;28;81577;-61
2021/05/05 14:28:29;;;;;;;3.97;2.28;;;23.10;38.70;;;;;;6064118;28;80391;-61
2021/05/05 14:31:30;;;;;;;3.70;2.22;;;23.00;38.80;;;;;;6068712;28;80311;-62
2021/05/05 14:34:31;;;;;;;2.88;2.10;;;23.00;39.00;;;;;;6064520;28;88881;-62
2021/05/05 14:37:31;;;;;;;5.60;2.03;;;23.00;39.30;;;;;;6065641;28;81102;-61
2021/05/05 14:40:33;;;;;;;5.57;2.03;;;22.90;39.00;;;;;;6068609;28;80259;-62
2021/05/05 14:49:48;;;;;;;5.72;3.60;;;22.80;40.10;;;;;;6064065;28;80634;-62
2021/05/05 14:52:48;;;;;;;5.40;2.90;;;22.80;40.10;;;;;;6063524;28;80724;-62
2021/05/05 14:55:49;;;;;;;5.13;3.15;;;22.80;39.80;;;;;;6064377;28;80467;-62
2021/05/05 15:02:02;;;;;;;5.47;2.38;;;22.90;39.60;;;;;;6062093;28;80974;-63
2021/05/05 15:05:03;;;;;;;5.90;2.33;;;23.00;39.40;;;;;;6069391;28;80487;-62
2021/05/05 15:08:07;;;;;;;3.70;2.78;;;23.00;40.30;;;;;;6060244;28;80425;-62
2021/05/05 15:50:14;;;;;;;6.82;2.60;;;23.20;40.40;;;;;;6021626;28;80343;-63
2021/05/05 15:53:18;;;;;;;5.60;2.40;;;23.20;40.30;;;;;;6069016;28;80504;-63
2021/05/05 15:56:19;;;;;;;4.22;2.42;;;23.20;40.40;;;;;;6064279;28;80624;-63
2021/05/05 16:02:46;;;;;;;3.33;2.00;;;23.20;40.20;;;;;;6061648;28;80844;-64
2021/05/05 16:09:36;;;;;;;4.45;2.53;;;23.20;40.40;;;;;;6061869;28;81644;-63
2021/05/05 16:15:56;;;;;;;3.92;2.40;;;23.20;40.10;;;;;;6055761;28;81631;-62
2021/05/05 16:18:59;;;;;;;5.60;1.92;;;23.20;40.20;;;;;;6054827;28;80649;-64
2021/05/05 16:22:10;;;;;;;5.82;2.25;;;23.20;40.00;;;;;;6059258;28;83091;-63
2021/05/05 16:25:19;;;;;;;5.43;2.20;;;23.20;40.20;;;;;;6064124;28;81174;-63
2021/05/05 16:45:18;;;;;;;3.78;2.50;;;23.20;40.30;;;;;;6056473;28;83764;-63
2021/05/05 16:48:13;;;;;;;3.63;2.15;;;23.20;40.20;;;;;;6063141;28;80916;-63
2021/05/05 16:54:28;;;;;;;5.55;2.00;;;23.10;40.50;;;;;;6057998;28;80312;-63
2021/05/05 17:07:18;;;;;;;4.97;2.20;;;23.20;40.90;;;;;;6070030;28;80514;-61
2021/05/05 17:10:18;;;;;;;3.15;2.20;;;23.30;40.70;;;;;;6060876;28;80372;-62
2021/05/05 17:13:19;;;;;;;4.10;2.28;;;23.30;40.70;;;;;;6064050;28;80450;-65
2021/05/05 17:16:20;;;;;;;3.42;2.10;;;23.20;40.60;;;;;;6060396;28;82778;-63
2021/05/05 17:19:32;;;;;;;4.88;2.60;;;23.30;40.60;;;;;;6069581;28;80551;-65
2021/05/05 17:22:40;;;;;;;7.93;2.83;;;23.30;40.80;;;;;;6056970;28;81631;-63
2021/05/05 17:25:49;;;;;;;3.97;2.38;;;23.30;40.60;;;;;;6064647;28;80510;-66
2021/05/05 17:45:09;;;;;;;5.50;2.55;;;23.40;39.60;;;;;;6061141;28;81448;-63
2021/05/05 17:48:24;;;;;;;4.30;2.78;;;23.40;39.40;;;;;;6060041;28;80349;-63